.
WxDataArchive / Data Records for 2006-05-31
2006-05-30 May 2006 2006-06-01

Data Records for Wednesday, 31 May 2006

Time	Temp	Chill	HIndex	Humid	Dewpt	 Wind 	HiWind	WindDir	Rain 	Barom 
-----	----	-----	------	-----	-----	------	------	-------	-----	----- 
00:00	72.5	72.5	72.5	72	62.9	0	1	45	0.00	30.010 
00:05	72.3	72.3	72.3	73	63.1	0	0	---	0.00	30.010 
00:10	72.1	72.1	72.1	73	63.0	0	1	45	0.00	30.010 
00:15	71.8	71.8	71.8	74	63.1	0	1	45	0.00	30.013 
00:20	71.5	71.5	71.5	75	63.1	0	1	45	0.00	30.013 
00:25	71.3	71.3	71.3	75	63.0	0	0	---	0.00	30.013 
00:30	70.9	70.9	70.9	76	62.9	0	0	---	0.00	30.013 
00:35	70.6	70.6	70.6	77	63.0	0	0	---	0.00	30.013 
00:40	70.3	70.3	70.3	77	62.7	0	0	---	0.00	30.013 
00:45	70.1	70.1	70.1	78	62.9	0	1	45	0.00	30.011 
00:50	70.1	70.1	70.1	80	63.6	1	2	45	0.00	30.011 
00:55	70.1	70.1	70.1	80	63.6	0	1	45	0.00	30.011 
01:00	69.9	69.9	69.9	80	63.4	0	0	---	0.00	30.010 
01:05	69.8	69.8	69.8	81	63.7	0	1	45	0.00	30.010 
01:10	69.6	69.6	69.6	82	63.9	0	1	45	0.00	30.010 
01:15	69.4	69.4	69.4	82	63.7	0	0	---	0.00	30.008 
01:20	69.4	69.4	69.4	83	64.0	0	0	---	0.00	30.008 
01:25	69.1	69.1	69.1	84	64.1	0	0	---	0.00	30.008 
01:30	68.9	68.9	68.9	84	63.9	0	0	---	0.00	30.010 
01:35	68.8	68.8	68.8	84	63.8	0	0	---	0.00	30.010 
01:40	68.6	68.6	68.6	85	63.9	0	0	---	0.00	30.010 
01:45	68.3	68.3	68.3	85	63.6	0	0	---	0.00	30.007 
01:50	68.1	68.1	68.1	86	63.7	0	0	---	0.00	30.007 
01:55	68.1	68.1	68.1	86	63.7	0	0	---	0.00	30.007 
02:00	67.9	67.9	67.9	86	63.5	0	0	---	0.00	29.998 
02:05	67.6	67.6	67.6	87	63.6	0	0	---	0.00	29.998 
02:10	67.6	67.6	67.6	88	63.9	0	0	---	0.00	29.998 
02:15	67.4	67.4	67.4	88	63.7	0	0	---	0.00	29.995 
02:20	67.3	67.3	67.3	89	63.9	0	1	45	0.00	29.995 
02:25	67.3	67.3	67.3	89	63.9	0	1	45	0.00	29.995 
02:30	67.3	67.3	67.3	89	63.9	0	0	---	0.00	29.995 
02:35	67.1	67.1	67.1	89	63.7	0	0	---	0.00	29.995 
02:40	67.1	67.1	67.1	89	63.7	0	0	---	0.00	29.995 
02:45	66.9	66.9	66.9	89	63.5	0	0	---	0.00	29.996 
02:50	66.9	66.9	66.9	90	63.9	0	0	---	0.00	29.996 
02:55	66.8	66.8	66.8	90	63.8	0	0	---	0.00	29.996 
03:00	66.8	66.8	66.8	90	63.8	0	0	---	0.00	29.993 
03:05	66.6	66.6	66.6	90	63.6	0	0	---	0.00	29.993 
03:10	66.4	66.4	66.4	90	63.4	0	0	---	0.00	29.993 
03:15	66.4	66.4	66.4	91	63.7	0	0	---	0.00	29.991 
03:20	66.4	66.4	66.4	91	63.7	0	0	---	0.00	29.991 
03:25	66.3	66.3	66.3	91	63.6	0	0	---	0.00	29.991 
03:30	66.4	66.4	66.4	91	63.7	0	0	---	0.00	29.991 
03:35	66.3	66.3	66.3	91	63.6	0	0	---	0.00	29.991 
03:40	66.3	66.3	66.3	91	63.6	0	0	---	0.00	29.991 
03:45	66.3	66.3	66.3	91	63.6	0	0	---	0.00	29.991 
03:50	66.3	66.3	66.3	92	63.9	0	0	---	0.00	29.991 
03:55	66.4	66.4	66.4	92	64.0	0	0	---	0.00	29.991 
04:00	66.4	66.4	66.4	92	64.0	0	1	45	0.00	29.995 
04:05	66.6	66.6	66.6	91	63.9	0	1	45	0.00	29.995 
04:10	66.6	66.6	66.6	91	63.9	0	1	45	0.00	29.995 
04:15	66.6	66.6	66.6	91	63.9	0	1	45	0.00	29.995 
04:20	66.8	66.8	66.8	91	64.1	0	2	315	0.00	29.995 
04:25	66.9	66.9	66.9	91	64.2	0	3	315	0.00	29.995 
04:30	67.3	67.3	67.3	91	64.6	0	2	248	0.00	29.995 
04:35	67.3	67.3	67.3	90	64.3	0	1	248	0.00	29.995 
04:40	67.4	67.4	67.4	90	64.4	0	2	202	0.00	29.995 
04:45	67.4	67.4	67.4	90	64.4	0	0	---	0.00	29.994 
04:50	67.4	67.4	67.4	90	64.4	0	1	202	0.00	29.994 
04:55	67.6	67.6	67.6	89	64.2	0	2	225	0.00	29.994 
05:00	67.9	67.9	67.9	88	64.2	1	2	248	0.00	30.001 
05:05	68.3	68.3	68.3	88	64.6	1	3	248	0.00	30.001 
05:10	68.4	68.4	68.4	87	64.4	0	1	248	0.00	30.001 
05:15	68.4	68.4	68.4	87	64.4	0	1	248	0.00	30.003 
05:20	68.4	68.4	68.4	86	64.0	0	0	---	0.00	30.003 
05:25	68.3	68.3	68.3	86	63.9	0	0	---	0.00	30.003 
05:30	68.3	68.3	68.3	86	63.9	0	1	248	0.00	30.006 
05:35	68.4	68.4	68.4	86	64.0	0	1	248	0.00	30.006 
05:40	68.4	68.4	68.4	86	64.0	0	1	248	0.00	30.006 
05:45	68.4	68.4	68.4	86	64.0	0	0	---	0.00	30.011 
05:50	68.3	68.3	68.3	86	63.9	0	0	---	0.00	30.011 
05:55	68.3	68.3	68.3	87	64.3	0	0	---	0.00	30.011 
06:00	68.1	68.1	68.1	87	64.1	0	1	248	0.00	30.012 
06:05	68.1	68.1	68.1	87	64.1	0	1	248	0.00	30.012 
06:10	68.1	68.1	68.1	87	64.1	0	0	---	0.00	30.012 
06:15	68.1	68.1	68.1	87	64.1	0	0	---	0.00	30.012 
06:20	68.1	68.1	68.1	87	64.1	0	0	---	0.00	30.012 
06:25	68.1	68.1	68.1	88	64.4	0	0	---	0.00	30.012 
06:30	68.1	68.1	68.1	88	64.4	0	0	---	0.00	30.019 
06:35	68.1	68.1	68.1	88	64.4	0	0	---	0.00	30.019 
06:40	68.3	68.3	68.3	88	64.6	0	2	248	0.00	30.019 
06:45	68.4	68.4	68.4	87	64.4	0	1	248	0.00	30.022 
06:50	68.6	68.6	68.6	87	64.6	0	1	248	0.00	30.022 
06:55	68.8	68.8	68.8	87	64.8	0	2	248	0.00	30.022 
07:00	68.8	68.8	68.8	86	64.4	0	1	248	0.00	30.028 
07:05	69.1	69.1	69.1	86	64.7	1	3	248	0.00	30.028 
07:10	69.3	69.3	69.3	85	64.6	1	4	248	0.00	30.028 
07:15	69.4	69.4	69.4	85	64.7	0	2	248	0.00	30.034 
07:20	69.6	69.6	69.6	84	64.5	0	3	248	0.00	30.034 
07:25	69.8	69.8	69.8	84	64.7	1	3	248	0.00	30.034 
07:30	70.1	70.1	70.1	83	64.7	1	3	270	0.00	30.036 
07:35	70.3	70.3	70.3	83	64.9	1	2	248	0.00	30.036 
07:40	70.4	70.4	70.4	83	65.0	1	2	248	0.00	30.036 
07:45	70.6	70.6	70.6	83	65.2	0	2	248	0.00	30.037 
07:50	70.8	70.8	70.8	83	65.4	1	5	248	0.00	30.037 
07:55	70.9	70.9	70.9	83	65.5	0	2	248	0.00	30.037 
08:00	71.3	71.3	71.3	83	65.9	0	2	248	0.00	30.038 
08:05	71.8	71.8	71.8	81	65.6	1	2	248	0.00	30.038 
08:10	72.3	72.3	72.3	80	65.8	1	2	248	0.00	30.038 
08:15	72.8	72.8	72.8	80	66.3	1	3	248	0.00	30.041 
08:20	73.3	73.3	73.3	78	66.0	1	3	248	0.00	30.041 
08:25	74.0	74.0	74.0	79	67.1	0	2	248	0.00	30.041 
08:30	74.4	74.4	74.4	77	66.7	1	3	248	0.00	30.044 
08:35	74.4	74.4	74.4	76	66.3	0	2	248	0.00	30.044 
08:40	74.4	74.4	74.4	77	66.7	1	3	248	0.00	30.044 
08:45	74.4	74.4	74.4	77	66.7	1	3	248	0.00	30.046 
08:50	74.9	74.9	74.9	76	66.8	1	3	270	0.00	30.046 
08:55	75.3	75.3	76.6	74	66.4	1	2	248	0.00	30.046 
09:00	75.8	75.8	77.2	74	66.9	1	2	248	0.00	30.045 
09:05	76.0	76.0	77.4	74	67.1	1	3	248	0.00	30.045 
09:10	76.3	76.3	77.8	73	67.0	1	3	292	0.00	30.045 
09:15	76.7	76.7	78.3	73	67.4	2	4	248	0.00	30.047 
09:20	77.0	77.0	78.7	72	67.3	1	2	248	0.00	30.047 
09:25	77.2	77.2	79.0	72	67.5	1	5	248	0.00	30.047 
09:30	77.4	77.4	79.3	72	67.6	1	3	270	0.00	30.045 
09:35	77.2	77.2	79.0	72	67.5	1	3	292	0.00	30.045 
09:40	76.8	76.8	78.5	72	67.1	1	4	248	0.00	30.045 
09:45	76.5	76.5	78.1	73	67.2	1	3	270	0.00	30.046 
09:50	76.3	76.3	77.8	73	67.0	1	2	248	0.00	30.046 
09:55	76.3	76.3	77.8	74	67.4	1	2	248	0.00	30.046 
10:00	76.5	76.5	78.1	74	67.6	1	4	248	0.00	30.046 
10:05	76.8	76.8	78.5	73	67.5	1	5	248	0.00	30.046 
10:10	76.8	76.8	78.5	73	67.5	1	3	248	0.00	30.046 
10:15	76.8	76.8	78.5	73	67.5	1	2	248	0.00	30.045 
10:20	76.8	76.8	78.5	73	67.5	1	2	270	0.00	30.045 
10:25	77.4	77.4	79.3	72	67.6	1	2	292	0.00	30.045 
10:30	77.9	77.9	80.0	73	68.5	1	2	292	0.00	30.041 
10:35	78.1	78.1	80.2	70	67.5	2	3	248	0.00	30.041 
10:40	78.8	78.8	81.3	72	69.0	1	3	270	0.00	30.041 
10:45	79.4	79.4	82.1	71	69.2	1	4	270	0.00	30.037 
10:50	79.8	79.8	82.4	68	68.3	2	4	248	0.00	30.037 
10:55	79.9	79.9	82.8	70	69.2	1	3	270	0.00	30.037 
11:00	80.3	80.3	82.9	66	67.9	1	3	248	0.00	30.036 
11:05	80.7	80.7	83.5	66	68.3	1	3	270	0.00	30.036 
11:10	80.7	80.7	83.4	65	67.8	1	3	292	0.00	30.036 
11:15	81.1	81.1	84.3	67	69.1	1	2	248	0.00	30.033 
11:20	81.2	81.2	84.3	66	68.7	1	4	248	0.00	30.033 
11:25	81.4	81.4	84.4	65	68.5	1	3	248	0.00	30.033 
11:30	81.8	81.8	84.9	64	68.4	1	3	248	0.00	30.036 
11:35	82.2	82.2	85.5	64	68.8	1	2	225	0.00	30.036 
11:40	82.6	82.6	85.9	63	68.7	1	3	270	0.00	30.036 
11:45	83.0	83.0	86.9	64	69.5	1	5	225	0.00	30.036 
11:50	83.4	83.4	87.0	62	69.0	0	2	270	0.00	30.036 
11:55	83.4	83.4	87.8	65	70.4	1	3	270	0.00	30.036 
12:00	83.4	83.4	87.6	64	69.9	1	3	270	0.00	30.028 
12:05	83.8	83.8	87.5	61	68.9	1	4	270	0.00	30.028 
12:10	84.0	84.0	88.6	64	70.5	1	2	270	0.00	30.028 
12:15	84.0	84.0	88.1	62	69.5	1	3	270	0.00	30.031 
12:20	83.8	83.8	87.7	62	69.4	2	4	248	0.00	30.031 
12:25	83.8	83.8	87.2	60	68.4	1	4	270	0.00	30.031 
12:30	83.8	83.8	87.5	61	68.9	1	3	248	0.00	30.030 
12:35	84.0	84.0	87.8	61	69.1	1	4	270	0.00	30.030 
12:40	84.0	84.0	87.8	61	69.1	3	5	270	0.00	30.030 
12:45	84.0	84.0	87.8	61	69.1	1	3	315	0.00	30.027 
12:50	84.5	84.5	88.7	61	69.5	2	4	270	0.00	30.027 
12:55	84.5	84.5	88.4	60	69.1	2	5	248	0.00	30.027 
13:00	84.9	84.9	88.8	59	68.9	1	5	248	0.00	30.024 
13:05	84.5	84.5	88.1	59	68.6	2	4	270	0.00	30.024 
13:10	84.3	84.3	88.3	61	69.4	2	6	270	0.00	30.024 
13:15	84.5	84.5	88.4	60	69.1	2	6	90	0.00	30.025 
13:20	84.7	84.7	88.4	59	68.8	2	5	248	0.00	30.025 
13:25	84.1	84.1	87.2	58	67.7	3	5	270	0.00	30.025 
13:30	84.3	84.3	88.9	63	70.3	1	4	270	0.00	30.023 
13:35	84.7	84.7	89.3	62	70.2	2	5	90	0.00	30.023 
13:40	85.3	85.3	90.1	61	70.3	2	4	248	0.00	30.023 
13:45	85.5	85.5	89.5	58	69.0	3	6	270	0.00	30.019 
13:50	85.5	85.5	88.3	54	66.9	3	5	270	0.00	30.019 
13:55	85.3	85.3	88.8	57	68.3	2	6	270	0.00	30.019 
14:00	85.1	85.1	89.1	59	69.1	2	7	248	0.00	30.014 
14:05	85.3	85.3	88.8	57	68.3	3	7	248	0.00	30.014 
14:10	85.9	85.9	89.2	55	67.8	2	6	248	0.00	30.014 
14:15	85.9	85.9	90.2	58	69.4	2	6	270	0.00	30.011 
14:20	86.1	86.1	90.9	59	70.1	2	5	270	0.00	30.011 
14:25	86.1	86.1	89.6	55	68.0	3	9	270	0.00	30.011 
14:30	86.5	86.5	89.9	54	67.8	2	5	248	0.00	29.999 
14:35	86.7	86.7	89.9	53	67.5	4	7	270	0.00	29.999 
14:40	87.0	87.0	90.8	54	68.3	2	6	270	0.00	29.999 
14:45	86.5	86.5	89.6	53	67.3	2	4	270	0.00	29.994 
14:50	87.0	87.0	90.8	54	68.3	2	5	270	0.00	29.994 
14:55	87.0	87.0	90.8	54	68.3	2	7	270	0.00	29.994 
15:00	86.7	86.7	89.9	53	67.5	3	6	270	0.00	29.997 
15:05	85.9	85.9	88.6	53	66.7	2	4	270	0.00	29.997 
15:10	84.9	84.9	87.1	53	65.8	2	5	270	0.00	29.997 
15:15	84.0	84.0	86.5	56	66.6	2	4	248	0.00	29.997 
15:20	83.8	83.8	86.4	57	66.9	2	4	248	0.00	29.997 
15:25	83.6	83.6	86.4	58	67.2	1	3	248	0.00	29.997 
15:30	83.2	83.2	86.5	61	68.3	1	3	248	0.00	29.995 
15:35	82.0	82.0	85.2	64	68.6	1	3	292	0.00	29.995 
15:40	81.2	81.2	84.1	65	68.3	1	3	270	0.00	29.995 
15:45	80.9	80.9	84.1	68	69.3	2	4	248	0.00	29.996 
15:50	79.9	79.9	83.1	73	70.4	2	5	248	0.00	29.996 
15:55	79.4	79.4	82.3	73	70.0	1	3	248	0.00	29.996 
16:00	78.8	78.8	81.3	72	69.0	0	3	292	0.00	29.988 
16:05	78.5	78.5	80.8	72	68.7	0	2	292	0.00	29.988 
16:10	78.3	78.3	80.5	72	68.5	0	1	292	0.00	29.988 
16:15	78.3	78.3	80.6	73	68.9	0	1	292	0.00	30.004 
16:20	76.1	76.1	77.8	70	65.6	6	16	270	0.00	30.004 
16:25	73.2	73.2	73.2	71	63.2	6	14	270	0.00	30.004 
16:30	71.1	71.1	71.1	79	64.2	7	13	270	0.01	30.025 
16:35	69.4	69.4	69.4	78	62.2	5	10	270	0.05	30.025 
16:40	68.3	68.3	68.3	83	62.9	2	5	292	0.08	30.025 
16:45	67.3	67.3	67.3	85	62.6	2	4	270	0.01	30.032 
16:50	66.8	66.8	66.8	88	63.1	1	3	248	0.01	30.032 
16:55	66.8	66.8	66.8	89	63.4	0	1	248	0.00	30.032 
17:00	66.9	66.9	66.9	90	63.9	0	2	248	0.01	30.023 
17:05	67.1	67.1	67.1	91	64.4	1	2	248	0.00	30.023 
17:10	67.1	67.1	67.1	91	64.4	0	1	248	0.01	30.023 
17:15	67.3	67.3	67.3	91	64.6	1	2	248	0.00	30.019 
17:20	67.6	67.6	67.6	90	64.6	1	2	292	0.00	30.019 
17:25	67.8	67.8	67.8	90	64.8	0	1	292	0.01	30.019 
17:30	67.9	67.9	67.9	90	64.9	0	1	292	0.00	30.012 
17:35	68.1	68.1	68.1	91	65.4	0	1	292	0.01	30.012 
17:40	68.1	68.1	68.1	91	65.4	0	1	292	0.00	30.012 
17:45	68.3	68.3	68.3	91	65.6	0	0	---	0.00	30.010 
17:50	68.6	68.6	68.6	92	66.2	0	0	---	0.00	30.010 
17:55	68.8	68.8	68.8	92	66.4	0	1	292	0.00	30.010 
18:00	68.9	68.9	68.9	92	66.5	0	1	292	0.00	30.008 
18:05	69.1	69.1	69.1	92	66.7	0	1	292	0.00	30.008 
18:10	69.6	69.6	69.6	92	67.2	1	2	292	0.00	30.008 
18:15	69.6	69.6	69.6	92	67.2	0	3	292	0.00	30.002 
18:20	69.8	69.8	69.8	91	67.0	0	2	292	0.00	30.002 
18:25	69.8	69.8	69.8	90	66.7	1	3	292	0.00	30.002 
18:30	69.9	69.9	69.9	90	66.8	1	2	248	0.00	30.000 
18:35	70.1	70.1	70.1	90	67.0	1	2	248	0.00	30.000 
18:40	70.1	70.1	70.1	90	67.0	0	2	248	0.00	30.000 
18:45	70.3	70.3	70.3	89	66.9	0	2	248	0.00	29.994 
18:50	70.3	70.3	70.3	89	66.9	0	1	248	0.00	29.994 
18:55	70.4	70.4	70.4	89	67.0	0	1	248	0.00	29.994 
19:00	70.4	70.4	70.4	88	66.7	0	1	248	0.00	29.993 
19:05	70.6	70.6	70.6	88	66.9	0	1	248	0.00	29.993 
19:10	70.8	70.8	70.8	88	67.1	0	2	315	0.00	29.993 
19:15	70.9	70.9	70.9	88	67.2	0	1	315	0.00	29.988 
19:20	71.1	71.1	71.1	88	67.4	0	1	315	0.00	29.988 
19:25	71.3	71.3	71.3	88	67.6	0	1	315	0.00	29.988 
19:30	71.5	71.5	71.5	88	67.7	0	1	315	0.00	29.988 
19:35	71.5	71.5	71.5	88	67.7	0	0	---	0.00	29.988 
19:40	71.5	71.5	71.5	88	67.7	0	0	---	0.00	29.988 
19:45	71.5	71.5	71.5	87	67.4	0	0	---	0.00	29.986 
19:50	71.3	71.3	71.3	88	67.6	0	0	---	0.00	29.986 
19:55	71.3	71.3	71.3	88	67.6	0	0	---	0.00	29.986 
20:00	71.1	71.1	71.1	88	67.4	0	1	315	0.00	29.988 
20:05	71.1	71.1	71.1	88	67.4	0	1	315	0.00	29.988 
20:10	71.1	71.1	71.1	88	67.4	0	2	315	0.00	29.988 
20:15	71.1	71.1	71.1	88	67.4	0	1	315	0.00	29.985 
20:20	71.1	71.1	71.1	89	67.7	0	0	---	0.00	29.985 
20:25	71.1	71.1	71.1	89	67.7	0	0	---	0.00	29.985 
20:30	70.9	70.9	70.9	89	67.5	0	0	---	0.00	29.986 
20:35	70.9	70.9	70.9	89	67.5	0	1	315	0.00	29.986 
20:40	70.9	70.9	70.9	89	67.5	0	1	315	0.00	29.986 
20:45	70.9	70.9	70.9	90	67.8	0	1	315	0.00	29.988 
20:50	70.8	70.8	70.8	90	67.7	0	1	315	0.00	29.988 
20:55	70.8	70.8	70.8	90	67.7	0	0	---	0.00	29.988 
21:00	70.6	70.6	70.6	90	67.5	0	1	315	0.00	29.993 
21:05	70.6	70.6	70.6	91	67.8	0	1	315	0.00	29.993 
21:10	70.4	70.4	70.4	91	67.6	0	0	---	0.00	29.993 
21:15	70.3	70.3	70.3	91	67.5	0	0	---	0.00	29.998 
21:20	70.3	70.3	70.3	91	67.5	0	0	---	0.00	29.998 
21:25	70.3	70.3	70.3	91	67.5	0	0	---	0.00	29.998 
21:30	70.1	70.1	70.1	92	67.7	0	0	---	0.00	30.002 
21:35	70.1	70.1	70.1	92	67.7	0	0	---	0.00	30.002 
21:40	69.9	69.9	69.9	92	67.5	0	0	---	0.00	30.002 
21:45	69.9	69.9	69.9	92	67.5	0	0	---	0.00	30.003 
21:50	69.8	69.8	69.8	92	67.4	0	0	---	0.00	30.003 
21:55	69.8	69.8	69.8	93	67.7	0	0	---	0.00	30.003 
22:00	69.8	69.8	69.8	93	67.7	0	0	---	0.00	30.005 
22:05	69.8	69.8	69.8	93	67.7	0	0	---	0.00	30.005 
22:10	69.8	69.8	69.8	93	67.7	0	0	---	0.00	30.005 
22:15	69.8	69.8	69.8	93	67.7	0	0	---	0.00	30.012 
22:20	69.8	69.8	69.8	93	67.7	0	0	---	0.00	30.012 
22:25	69.8	69.8	69.8	93	67.7	0	0	---	0.00	30.012 
22:30	69.6	69.6	69.6	93	67.5	0	0	---	0.00	30.016 
22:35	69.6	69.6	69.6	93	67.5	0	0	---	0.00	30.016 
22:40	69.6	69.6	69.6	94	67.8	0	0	---	0.00	30.016 
22:45	69.6	69.6	69.6	94	67.8	0	0	---	0.00	30.018 
22:50	69.6	69.6	69.6	94	67.8	0	0	---	0.00	30.018 
22:55	69.6	69.6	69.6	94	67.8	0	0	---	0.00	30.018 
23:00	69.8	69.8	69.8	94	68.0	0	0	---	0.00	30.022 
23:05	69.8	69.8	69.8	94	68.0	0	0	---	0.00	30.022 
23:10	69.8	69.8	69.8	94	68.0	0	0	---	0.00	30.022 
23:15	69.8	69.8	69.8	94	68.0	0	0	---	0.00	30.025 
23:20	69.8	69.8	69.8	94	68.0	0	0	---	0.00	30.025 
23:25	69.9	69.9	69.9	94	68.1	0	0	---	0.00	30.025 
23:30	69.9	69.9	69.9	94	68.1	0	0	---	0.00	30.020 
23:35	69.8	69.8	69.8	94	68.0	0	0	---	0.00	30.020 
23:40	69.8	69.8	69.8	94	68.0	0	1	315	0.00	30.020 
23:45	69.8	69.8	69.8	94	68.0	0	0	---	0.00	30.027 
23:50	69.6	69.6	69.6	94	67.8	0	0	---	0.00	30.027 
23:55	69.6	69.6	69.6	94	67.8	0	0	---	0.00	30.027 

CoCoRaHS
IN-AL-39
A2 Web Hosting
Creative Commons License
GoDaddy
Look for:

loaded 2017-10-17 09:37:20 • last modified 2010-11-18 10:43:29
Privacy PolicyDisclaimer
• wx.awcolley.com is powered by PmWiki v.2002016 •
• all content (unless otherwise noted) © 2017 A W Colley